Map

Track Data

SID SEASON NUMBER BASIN SUBBASIN NAME ISO_TIME NATURE LAT LON WMO_WIND WMO_PRES WMO_AGENCY TRACK_TYPE DIST2LAND LANDFALL IFLAG USA_AGENCY USA_ATCF_ID USA_LAT USA_LON USA_RECORD USA_STATUS USA_WIND USA_PRES USA_SSHS USA_R34_NE USA_R34_SE USA_R34_SW USA_R34_NW USA_R50_NE USA_R50_SE USA_R50_SW USA_R50_NW USA_R64_NE USA_R64_SE USA_R64_SW USA_R64_NW USA_POCI USA_ROCI USA_RMW USA_EYE TOKYO_LAT TOKYO_LON TOKYO_GRADE TOKYO_WIND TOKYO_PRES TOKYO_R50_DIR TOKYO_R50_LONG TOKYO_R50_SHORT TOKYO_R30_DIR TOKYO_R30_LONG TOKYO_R30_SHORT TOKYO_LAND CMA_LAT CMA_LON CMA_CAT CMA_WIND CMA_PRES HKO_LAT HKO_LON HKO_CAT HKO_WIND HKO_PRES NEWDELHI_LAT NEWDELHI_LON NEWDELHI_GRADE NEWDELHI_WIND NEWDELHI_PRES NEWDELHI_CI NEWDELHI_DP NEWDELHI_POCI REUNION_LAT REUNION_LON REUNION_TYPE REUNION_WIND REUNION_PRES REUNION_TNUM REUNION_CI REUNION_RMW REUNION_R34_NE REUNION_R34_SE REUNION_R34_SW REUNION_R34_NW REUNION_R50_NE REUNION_R50_SE REUNION_R50_SW REUNION_R50_NW REUNION_R64_NE REUNION_R64_SE REUNION_R64_SW REUNION_R64_NW BOM_LAT BOM_LON BOM_TYPE BOM_WIND BOM_PRES BOM_TNUM BOM_CI BOM_RMW BOM_R34_NE BOM_R34_SE BOM_R34_SW BOM_R34_NW BOM_R50_NE BOM_R50_SE BOM_R50_SW BOM_R50_NW BOM_R64_NE BOM_R64_SE BOM_R64_SW BOM_R64_NW BOM_ROCI BOM_POCI BOM_EYE BOM_POS_METHOD BOM_PRES_METHOD NADI_LAT NADI_LON NADI_CAT NADI_WIND NADI_PRES WELLINGTON_LAT WELLINGTON_LON WELLINGTON_WIND WELLINGTON_PRES DS824_LAT DS824_LON DS824_STAGE DS824_WIND DS824_PRES TD9636_LAT TD9636_LON TD9636_STAGE TD9636_WIND TD9636_PRES TD9635_LAT TD9635_LON TD9635_WIND TD9635_PRES TD9635_ROCI NEUMANN_LAT NEUMANN_LON NEUMANN_CLASS NEUMANN_WIND NEUMANN_PRES MLC_LAT MLC_LON MLC_CLASS MLC_WIND MLC_PRES USA_GUST BOM_GUST BOM_GUST_PER REUNION_GUST REUNION_GUST_PER USA_SEAHGT USA_SEARAD_NE USA_SEARAD_SE USA_SEARAD_SW USA_SEARAD_NW STORM_SPEED STORM_DIR
1972035S18051 1972 10 SI MM DOLLY 1972-02-04 06:00:00 TS -17.8000 51.2000 main 180 169 O________OO___ jtwc_sh SH151972 -17.8000 51.2000 -1 -17.8000 51.2000 TC 25 -17.8000 51.2000 1 3 251
1972035S18051 1972 10 SI MM DOLLY 1972-02-04 09:00:00 TS -17.8487 51.0505 main 169 139 P________PP___ SH151972 -17.8425 51.0500 -1 -17.8425 51.0500 TC 25 -17.8610 51.0516 1 4 260
1972035S18051 1972 10 SI MM DOLLY 1972-02-04 12:00:00 TS -17.8712 50.7734 reunion main 139 118 O____O___OP_O_ jtwc_sh SH151972 -17.9000 50.9000 -1 -17.7000 50.2000 2 9.90000 -17.9000 50.9000 TC 25 -17.9276 50.9025 1 -17.7000 50.2000 TC 25 4 260
1972035S18051 1972 10 SI MM DOLLY 1972-02-04 15:00:00 TS -17.9188 50.6230 main 118 108 P____P___PP_P_ SH151972 -17.9850 50.7500 -1 -17.7000 50.2400 2 -17.9850 50.7500 TC 25 -18.0054 50.7521 1 -17.7000 50.2400 TC 25 3 250
1972035S18051 1972 10 SI MM DOLLY 1972-02-04 18:00:00 TS -17.9667 50.5000 reunion main 111 101 O____O___OO_O_ jtwc_sh SH151972 -18.1000 50.6000 -1 -17.7000 50.3000 99 9.90000 -18.1000 50.6000 TC 25 -18.1000 50.6000 1 -17.7000 50.3000 TC 25 2 241
1972035S18051 1972 10 SI MM DOLLY 1972-02-04 21:00:00 TS -18.0256 50.4208 main 101 101 P____P___PP_P_ SH151972 -18.2575 50.4351 -1 -17.7000 50.3925 99 -18.2575 50.4351 TC 25 -18.2131 50.4491 1 -17.7000 50.3925 TC 27 2 218
1972035S18051 1972 10 SI MM DOLLY 1972-02-05 00:00:00 TS -18.1060 50.3835 reunion main 105 105 O____O___OP_O_ jtwc_sh SH151972 -18.4000 50.3000 -1 -17.7000 50.5000 99 9.90000 -18.4000 50.3000 TC 25 -18.3300 50.3176 1 -17.7000 50.5000 TC 30 1 199
1972035S18051 1972 10 SI MM DOLLY 1972-02-05 03:00:00 TS -18.1554 50.3704 main 105 105 P____P___PP_P_ SH151972 -18.4725 50.2125 -1 -17.7000 50.6000 99 -18.4725 50.2125 TC 25 -18.4318 50.2272 1 -17.7000 50.6000 TC 30 1 0
1972035S18051 1972 10 SI MM DOLLY 1972-02-05 06:00:00 TS -18.1800 50.4000 reunion main 105 105 O____O___OO_O_ jtwc_sh SH151972 -18.5000 50.2000 -1 -17.7000 50.7000 99 9.90000 -18.5000 50.2000 TC 25 -18.5000 50.2000 1 -17.7000 50.7000 TC 30 1 103
1972035S18051 1972 10 SI MM DOLLY 1972-02-05 09:00:00 TS -18.1792 50.4817 main 116 116 P____P___PP_P_ SH151972 -18.5150 50.2700 -1 -17.6775 50.8000 99 -18.5150 50.2700 TC 25 -18.5110 50.2684 1 -17.6775 50.8000 TC 30 2 89
1972035S18051 1972 10 SI MM DOLLY 1972-02-05 12:00:00 TS -18.1775 50.5995 reunion main 126 126 O____O___OP_O_ jtwc_sh SH151972 -18.5000 50.4000 -1 -17.7000 50.9000 2 9.90000 -18.5000 50.4000 TC 25 -18.4876 50.3975 1 -17.7000 50.9000 TC 30 2 94
1972035S18051 1972 10 SI MM DOLLY 1972-02-05 15:00:00 TS -18.1971 50.7306 main 137 137 P____P___PP_P_ SH151972 -18.4500 50.5575 -1 -17.8200 50.9925 2 -18.4500 50.5575 TC 25 -18.4454 50.5528 1 -17.8200 50.9925 TC 30 3 104
1972035S18051 1972 10 SI MM DOLLY 1972-02-05 18:00:00 TS -18.2400 50.8600 reunion main 158 158 O____O___OO_O_ jtwc_sh SH151972 -18.4000 50.7000 -1 -18.0000 51.1000 99 9.90000 -18.4000 50.7000 TC 25 -18.4000 50.7000 1 -18.0000 51.1000 TC 30 2 115
1972035S18051 1972 10 SI MM DOLLY 1972-02-05 21:00:00 TS -18.2954 50.9531 main 169 169 P____P___PP_P_ SH151972 -18.4000 50.7575 -1 -18.1775 51.2425 99 -18.4000 50.7575 TC 25 -18.3220 50.7653 1 -18.1775 51.2425 TC 30 2 126
1972035S18051 1972 10 SI MM DOLLY 1972-02-06 00:00:00 TS -18.3705 51.0441 reunion main 170 170 O____O___OP_O_ jtwc_sh SH151972 -18.4000 50.8000 -1 -18.4000 51.4000 99 9.90000 -18.4000 50.8000 TC 25 -18.2523 50.8206 1 -18.4000 51.4000 TC 30 2 128
1972035S18051 1972 10 SI MM DOLLY 1972-02-06 03:00:00 TS -18.4423 51.1551 main 191 191 P____P___PP_P_ SH151972 -18.3125 50.8776 -1 -18.6775 51.5649 99 -18.3125 50.8776 TC 25 -18.2314 50.8905 1 -18.6775 51.5649 TC 32 3 133
1972035S18051 1972 10 SI MM DOLLY 1972-02-06 06:00:00 TS -18.5800 51.2800 reunion main 205 205 O____O___OO_O_ jtwc_sh SH151972 -18.3000 51.0000 -1 -19.0000 51.7000 99 9.90000 -18.3000 51.0000 TC 25 -18.3000 51.0000 1 -19.0000 51.7000 TC 35 5 149
1972035S18051 1972 10 SI MM DOLLY 1972-02-06 09:00:00 TS -18.8566 51.4141 main 224 224 P____P___PP_P_ SH151972 -18.4900 51.1775 -1 -19.3800 51.7651 99 -18.4900 51.1775 TC 25 -18.5433 51.1852 1 -19.3800 51.7651 TC 35 7 156
1972035S18051 1972 10 SI MM DOLLY 1972-02-06 12:00:00 TS -19.1740 51.5623 reunion main 257 257 O____O___OP_O_ jtwc_sh SH151972 -18.8000 51.4000 -1 -19.7000 51.8000 3 9.90000 -18.8000 51.4000 TC 25 -18.8702 51.4113 1 -19.7000 51.8000 TC 35 7 154
1972035S18051 1972 10 SI MM DOLLY 1972-02-06 15:00:00 TS -19.4524 51.7253 main 277 277 P____P___PP_P_ SH151972 -19.1800 51.6498 -1 -19.8450 51.8350 3 -19.1800 51.6498 TC 25 -19.2120 51.6570 1 -19.8450 51.8350 TC 35 6 147
1972035S18051 1972 10 SI MM DOLLY 1972-02-06 18:00:00 TS -19.6600 51.9000 reunion main 304 304 O____O___OO_O_ jtwc_sh SH151972 -19.5000 51.9000 -1 -19.9000 51.9000 99 9.90000 -19.5000 51.9000 TC 25 -19.5000 51.9000 1 -19.9000 51.9000 TC 35 4 132
1972035S18051 1972 10 SI MM DOLLY 1972-02-06 21:00:00 TS -19.7410 52.0657 main 324 324 P____P___PP_P_ SH151972 -19.5874 52.1077 -1 -19.9574 52.0125 99 -19.5874 52.1077 TC 25 -19.6150 52.0877 1 -19.9574 52.0125 TC 37 4 109
1972035S18051 1972 10 SI MM DOLLY 1972-02-07 00:00:00 TS -19.7744 52.2542 reunion main 335 316 O____O___OP_O_ jtwc_sh SH151972 -19.6000 52.3000 -1 -20.0000 52.2000 99 9.90000 -19.6000 52.3000 TC 25 -19.6720 52.2712 1 -20.0000 52.2000 TC 40 4 103
1972035S18051 1972 10 SI MM DOLLY 1972-02-07 03:00:00 TS -19.8317 52.4938 main 316 292 P____P___PP_P_ SH151972 -19.6774 52.4851 -1 -20.0427 52.5150 99 -19.6774 52.4851 TC 30 -19.7181 52.4690 1 -20.0427 52.5150 TC 40 5 108
1972035S18051 1972 10 SI MM DOLLY 1972-02-07 06:00:00 TS -19.9200 52.7400 reunion main 292 269 O____O___OO_O_ jtwc_sh SH151972 -19.8000 52.7000 -1 -20.1000 52.8000 99 9.90000 -19.8000 52.7000 TC 35 -19.8000 52.7000 2 -20.1000 52.8000 TC 40 5 119
1972035S18051 1972 10 SI MM DOLLY 1972-02-07 09:00:00 TS -20.0531 52.9237 main 264 240 P____P___PP_P_ SH151972 -19.9775 52.9775 -1 -20.1623 52.8353 99 -19.9775 52.9775 TC 35 -19.9861 52.9928 2 -20.1623 52.8353 TC 40 5 130
1972035S18051 1972 10 SI MM DOLLY 1972-02-07 12:00:00 TS -20.2425 53.1439 reunion main 240 188 O____O___OP_O_ jtwc_sh SH151972 -20.2000 53.3000 -1 -20.3000 52.9000 3 9.90000 -20.2000 53.3000 TC 35 -20.2127 53.3195 2 -20.3000 52.9000 TC 40 7 130
1972035S18051 1972 10 SI MM DOLLY 1972-02-07 15:00:00 TS -20.5087 53.5001 main 188 139 P____P___PP_P_ SH151972 -20.4500 53.6500 -1 -20.5928 53.2695 3 -20.4500 53.6500 TC 35 -20.4579 53.6616 2 -20.5928 53.2695 TC 40 9 128
1972035S18051 1972 10 SI MM DOLLY 1972-02-07 18:00:00 TS -20.7800 53.8800 reunion main 139 116 O____O___OO_O_ jtwc_sh SH151972 -20.7000 54.0000 -1 -20.9000 53.7000 99 9.90000 -20.7000 54.0000 TC 35 -20.7000 54.0000 2 -20.9000 53.7000 TC 40 8 126
1972035S18051 1972 10 SI MM DOLLY 1972-02-07 21:00:00 TS -20.9585 54.1547 main 104 82 P____P___PP_P_ SH151972 -20.9074 54.3077 -1 -21.0494 53.9132 99 -20.9074 54.3077 TC 35 -20.8788 54.3320 2 -21.0494 53.9132 TC 37 6 123
1972035S18051 1972 10 SI MM DOLLY 1972-02-08 00:00:00 TS -21.1310 54.4506 reunion main 72 47 O____O___OP_O_ jtwc_sh SH151972 -21.1000 54.6000 -1 -21.2000 54.2000 99 9.90000 -21.1000 54.6000 TC 35 -21.0551 54.6530 2 -21.2000 54.2000 TC 35 8 120
1972035S18051 1972 10 SI MM DOLLY 1972-02-08 03:00:00 TS -21.3529 54.8744 main 42 24 P____P___PP_P_ SH151972 -21.2775 54.9151 -1 -21.4779 54.7972 99 -21.2775 54.9151 TC 35 -21.2538 54.9475 2 -21.4779 54.7972 TC 35 9 121
1972035S18051 1972 10 SI MM DOLLY 1972-02-08 06:00:00 TS -21.6200 55.3200 reunion main 33 30 O____O___OO_O_ jtwc_sh SH151972 -21.5000 55.2000 -1 -21.8000 55.5000 99 9.90000 -21.5000 55.2000 TC 35 -21.5000 55.2000 2 -21.8000 55.5000 TC 35 10 125
1972035S18051 1972 10 SI MM DOLLY 1972-02-08 09:00:00 TS -21.9005 55.7195 main 56 56 P____P___PP_P_ SH151972 -21.8200 55.4300 -1 -22.0252 56.1679 99 -21.8200 55.4300 TC 35 -21.8123 55.4015 2 -22.0252 56.1679 TC 35 9 135
1972035S18051 1972 10 SI MM DOLLY 1972-02-08 12:00:00 TS -22.2749 56.0321 reunion main 108 108 O____O___OP_O_ jtwc_sh SH151972 -22.2000 55.6000 -1 -22.4000 56.7000 3 9.90000 -22.2000 55.6000 TC 35 -22.1747 55.5603 2 -22.4000 56.7000 TC 35 10 153
1972035S18051 1972 10 SI MM DOLLY 1972-02-08 15:00:00 TS -22.7898 56.2081 main 168 168 P____P___PP_P_ SH151972 -22.5925 55.7152 -1 -23.0947 56.9606 3 -22.5925 55.7152 TC 35 -22.5748 55.6890 2 -23.0947 56.9606 TC 32 12 167
1972035S18051 1972 10 SI MM DOLLY 1972-02-08 18:00:00 TS -23.4000 56.3200 reunion main 234 234 O____O___OO_O_ jtwc_sh SH151972 -23.0000 55.8000 -1 -24.0000 57.1000 99 9.90000 -23.0000 55.8000 TC 35 -23.0000 55.8000 2 -24.0000 57.1000 TC 30 13 169
1972035S18051 1972 10 SI MM DOLLY 1972-02-08 21:00:00 TS -24.0166 56.4705 main 304 304 P____P___PP_P_ SH151972 -23.3850 55.9001 -1 -24.9626 57.3148 99 -23.3850 55.9001 TC 35 -23.3878 55.9228 2 -24.9626 57.3148 TC 30 13 168
1972035S18051 1972 10 SI MM DOLLY 1972-02-09 00:00:00 TS -24.6805 56.6061 reunion main 382 382 O____O___OP_O_ jtwc_sh SH151972 -23.8000 56.0000 -1 -26.0000 57.5000 99 9.90000 -23.8000 56.0000 TC 35 -23.8026 56.0303 2 -26.0000 57.5000 TC 30 14 171
1972035S18051 1972 10 SI MM DOLLY 1972-02-09 03:00:00 TS -25.3602 56.7138 main 460 460 P____P___PP_P_ SH151972 -24.2625 56.1075 -1 -27.0050 57.6157 99 -24.2625 56.1075 TC 35 -24.2660 56.1227 2 -27.0050 57.6157 TC 30 12 176
1972035S18051 1972 10 SI MM DOLLY 1972-02-09 06:00:00 TS -25.9000 56.7000 reunion main 515 515 O____O___OO_O_ jtwc_sh SH151972 -24.8000 56.2000 -1 -28.1000 57.7000 99 9.90000 -24.8000 56.2000 TC 35 -24.8000 56.2000 2 -28.1000 57.7000 TC 30 10 183
1972035S18051 1972 10 SI MM DOLLY 1972-02-09 09:00:00 TS -26.3974 56.6474 main 567 567 P____P___PP_P_ SH151972 -25.4125 56.2576 -1 -29.3525 57.7942 99 -25.4125 56.2576 TC 35 -25.4120 56.2802 2 -29.3525 57.7942 TC 30 9 190
1972035S18051 1972 10 SI MM DOLLY 1972-02-09 12:00:00 MX -26.7558 56.5412 reunion main 610 608 O____O___OP_O_ jtwc_sh SH151972 -26.1000 56.3000 -1 -30.7000 57.9000 5 9.90000 -26.1000 56.3000 TC 35 -26.0952 56.3442 2 -30.7000 57.9000 EX 30 5 210
1972035S18051 1972 10 SI MM DOLLY 1972-02-09 15:00:00 TS -26.8286 56.3670 main 608 608 P________PP___ SH151972 -26.8275 56.3574 -1 5 -26.8275 56.3574 TC 35 -26.8308 56.3862 2 EX 9 188
1972035S18051 1972 10 SI MM DOLLY 1972-02-09 18:00:00 TS -27.6000 56.4000 main 697 697 O________OO___ jtwc_sh SH151972 -27.6000 56.4000 -1 -27.6000 56.4000 TC 35 -27.6000 56.4000 2 16 178
1972035S18051 1972 10 SI MM DOLLY 1972-02-09 21:00:00 TS -28.3906 56.4087 main 786 786 P________PP___ SH151972 -28.3925 56.4223 -1 -28.3925 56.4223 TC 30 -28.3867 56.3816 2 16 0
1972035S18051 1972 10 SI MM DOLLY 1972-02-10 00:00:00 TS -29.1949 56.3789 main 875 875 O________OP___ jtwc_sh SH151972 -29.2000 56.4000 -1 -29.2000 56.4000 TC 25 -29.1848 56.3367 2 16 183
1972035S18051 1972 10 SI MM DOLLY 1972-02-10 03:00:00 TS -29.9985 56.3031 main 963 963 P________PP___ SH151972 -30.0025 56.3181 -1 -30.0025 56.3181 TC 25 -29.9906 56.2733 2 16 186
1972035S18051 1972 10 SI MM DOLLY 1972-02-10 06:00:00 TS -30.8000 56.2000 main 1051 O________OO___ jtwc_sh SH151972 -30.8000 56.2000 -1 -30.8000 56.2000 TC 25 -30.8000 56.2000 1 16 186

About IBTrACS Database

This database is a web-friendly format of International Best Track Archive for Climate Stewardship (IBTrACS), a global best track data archive curated by NOAA dating back to 1842.

Updated: 2021-12-03